Las Vegas, Nevada (DRI) Weather observations

Data are for observation ending at time listed.
 Day   Time    Ave.   Ave.  Ave.  Vector   Max.   Stn.    Total    Solar   Ave.  
  of    of     Air    Rel.  Wind   Wind    Wind   Baro.  Precip.   Rad.    Soil  
Year   Day     Temp.  Hum.  Speed  Dir.    Gust   Pres.                    Temp. 
2026   (PST)    F      %     mph   deg.    mph     mb.     in.     W/m2     F   
------------------------------------------------------------------------------
 121   10:00   77.9    14    3.3    55      6.6   943.9    0.00     843    75.8
 121   10:10   77.8    14    2.9    53      6.8   943.9    0.00     860    76.3
 121   10:20   78.8    14    3.5    37      8.2   943.8    0.00     900    77.0
 121   10:30   79.0    14    3.7    42      8.3   943.6    0.00     844    77.7
 121   10:40   79.9    14    3.2    52      8.0   943.6    0.00     938    78.5
 121   10:50   80.7    14    2.1    45      5.8   943.4    0.00     914    79.4
 121   11:00   80.0    14    3.4    37      7.0   943.4    0.00     608    80.3
 121   11:10   80.7    14    3.4    37      8.7   943.2    0.00    1006    81.2
 121   11:20   80.2    14    3.0    32      8.1   943.2    0.00     608    81.9
 121   11:30   79.6    14    2.5    40      6.2   943.1    0.00     257    82.6
 121   11:40   79.1    14    2.6    54      6.0   942.9    0.00     520    83.1
 121   11:50   80.9    14    2.8    48      5.8   942.8    0.00    1009    83.4
 121   12:00   82.4    13    2.3    86      7.4   942.6    0.00     999    83.7
 121   12:10   83.4    13    1.9    19      4.7   942.5    0.00     986    84.2
 121   12:20   84.0    13    2.3    25      7.2   942.3    0.00    1012    84.8
 121   12:30   83.2    13    3.0    29      5.8   942.2    0.00     750    85.5
 121   12:40   82.9    13    2.3    35      6.3   942.1    0.00     730    86.2
 121   12:50   82.6    13    3.6    58      7.6   942.0    0.00     971    86.8
 121   13:00   83.7    13    3.2    19      8.4   941.9    0.00     921    87.4
 121   13:10   85.1    13    2.3   347      6.7   941.8    0.00     925    87.9
 121   13:20   85.2    13    2.5   258      7.6   941.6    0.00     903    88.5
 121   13:30   86.1    13    1.6   268      5.3   941.5    0.00     884    89.0
 121   13:40   86.3    13    1.8    33      7.2   941.3    0.00     855    89.7
 121   13:50   84.9    13    3.4    44      8.0   941.2    0.00     723    90.2
 121   14:00   84.6    13    3.0    34      6.7   941.0    0.00     737    90.8
 121   14:10   86.2    12    2.5    20      6.9   940.9    0.00     810    91.2
 121   14:20   86.4    12    5.5    22     11.9   940.7    0.00     773    91.7
 121   14:30   86.8    12    4.1    47      8.4   940.7    0.00     542    91.9
 121   14:40   85.7    12    3.0    49      8.3   940.7    0.00     237    92.1
 121   14:50   85.5    12    1.8    42      4.9   940.6    0.00     503    92.3
 121   15:00   87.0    12    2.8    51      5.9   940.5    0.00     258    92.2
 121   15:10   88.0    12    2.0    53      7.5   940.4    0.00     580    92.1
 121   15:20   90.5    11    1.7    46      6.1   940.4    0.00     615    91.9
 121   15:30   91.2    11    0.8   196      3.4   940.3    0.00     578    91.8
 121   15:40   90.6    11    1.2    55      4.7   940.3    0.00     537    91.6
 121   15:50   89.7    11    1.4   268      4.1   940.2    0.00     502    91.4
 121   16:00   89.0    12    1.5   320      4.7   940.1    0.00     473    91.3
 121   16:10   90.8    11    2.5    34      9.5   940.1    0.00     433    91.1
 121   16:20   87.8    11    2.1   211      5.8   940.0    0.00     399    91.0
 121   16:30   90.3    11    0.8    54      3.9   939.9    0.00     362    90.9
 121   16:40   91.4    11    1.1    48      4.0   940.0    0.00     329    90.7
 121   16:50   91.0    11    1.2    28      6.4   939.9    0.00     295    90.6
 121   17:00   89.6    11    1.0   226      4.5   939.9    0.00     260    90.4
 121   17:10   88.6    11    1.9     7      6.9   940.0    0.00     229    90.2
 121   17:20   87.5    11    2.7    24      6.3   940.0    0.00     197    90.1
 121   17:30   87.8    11    0.8   201      3.7   940.0    0.00     166    89.9
 121   17:40   88.3    10    0.8    46      3.6   940.0    0.00     136    89.6
 121   17:50   86.9    10    1.9    53      7.4   940.1    0.00      93    89.3
 121   18:00   84.3    11    3.4    47      8.0   940.3    0.00      31    89.0
 121   18:10   83.8    11    3.0    50      6.6   940.4    0.00      17    88.7
 121   18:20   82.7    11    3.7    55      9.3   940.5    0.00      10    88.3
 121   18:30   82.0    11    3.7    54      6.3   940.5    0.00       5    87.9
 121   18:40   81.8    11    3.7    53      7.3   940.6    0.00       2    87.5
 121   18:50   81.6    11    3.4    57      7.2   940.8    0.00       0    87.2
 121   19:00   81.4    11    2.8    54      6.4   940.9    0.00       0    86.8
 121   19:10   81.2    11    2.0    52      4.5   941.0    0.00       0    86.4
 121   19:20   80.9    11    1.1    63      2.9   941.2    0.00       0    86.0
 121   19:30   80.8    11    2.5    46      5.8   941.4    0.00       0    85.7
 121   19:40   80.6    11    1.5    53      3.7   941.5    0.00       0    85.4
 121   19:50   79.9    12    0.6    74      2.9   941.7    0.00       0    85.1
 121   20:00   79.7    11    1.5    62      3.9   941.8    0.00       0    84.8
 121   20:10   79.6    12    0.3    76      1.7   941.9    0.00       0    84.5
 121   20:20   78.9    12    0.5    66      3.1   942.0    0.00       0    84.2
 121   20:30   77.7    12    0.0    77      1.5   942.2    0.00       0    83.9
 121   20:40   77.0    13    0.1   135      1.3   942.2    0.00       0    83.7
 121   20:50   76.5    13    0.8    19      3.9   942.4    0.00       0    83.4
 121   21:00   78.1    12    2.8    46      6.2   942.6    0.00       0    83.2
 121   21:10   77.6    12    2.2    37      5.3   942.7    0.00       0    82.9
 121   21:20   77.1    12    1.7    38      3.8   942.8    0.00       0    82.7
 121   21:30   76.6    12    1.0    58      3.4   942.9    0.00       0    82.5
 121   21:40   76.4    12    1.7    54      3.6   943.0    0.00       0    82.3
 121   21:50   76.2    12    2.0    58      4.5   943.0    0.00       0    82.0
 121   22:00   75.8    12    1.4    63      3.1   943.0    0.00       0    81.8
 121   22:10   75.5    12    1.5    39      3.9   943.1    0.00       0    81.6
 121   22:20   75.5    12    2.4    23      4.5   943.2    0.00       0    81.4
 121   22:30   75.5    12    2.8    28      5.1   943.3    0.00       0    81.2
 121   22:40   75.3    12    2.9    32      6.2   943.4    0.00       0    81.0
 121   22:50   74.9    12    2.9    31      5.9   943.4    0.00       0    80.8
 121   23:00   74.7    12    2.2    32      5.4   943.5    0.00       0    80.7
 121   23:10   74.3    12    1.4    16      3.1   943.6    0.00       0    80.5
 121   23:20   74.0    12    2.1   351      4.0   943.7    0.00       0    80.3
 121   23:30   73.7    12    1.4   352      3.6   943.8    0.00       0    80.2
 121   23:40   73.5    12    1.2    25      4.3   943.8    0.00       0    80.0
 121   23:50   72.2    13    0.3   220      1.6   943.8    0.00       0    79.8
 122    0:00   72.0    13    0.4   168      1.4   943.9    0.00       0    79.7
 122    0:10   72.5    13    0.9    79      3.4   943.9    0.00       0    79.5
 122    0:20   73.5    13    1.0    12      3.9   943.9    0.00       0    79.3
 122    0:30   73.6    13    1.1    25      3.3   943.9    0.00       0    79.2
 122    0:40   72.4    14    0.2   162      2.0   943.9    0.00       0    79.0
 122    0:50   70.9    15    0.4   184      1.6   943.9    0.00       0    78.8
 122    1:00   70.2    16    0.3   168      2.0   943.9    0.00       0    78.7
 122    1:10   69.6    15    0.0     0      0.0   943.9    0.00       0    78.5
 122    1:20   68.8    16    0.0     0      0.0   943.8    0.00       0    78.4
 122    1:30   68.6    16    0.0     0      0.0   943.8    0.00       0    78.2
 122    1:40   68.4    17    0.2   181      0.9   943.7    0.00       0    78.0
 122    1:50   68.7    16    0.7   174      1.3   943.7    0.00       0    77.8
 122    2:00   68.6    18    1.1   163      1.9   943.7    0.00       0    77.7
 122    2:10   68.6    18    0.5   164      1.4   943.8    0.00       0    77.5
 122    2:20   68.3    20    0.3   165      1.2   943.8    0.00       0    77.3
 122    2:30   68.0    21    0.3   170      1.5   943.8    0.00       0    77.2
 122    2:40   66.9    23    0.2   141      1.5   943.9    0.00       0    77.0
 122    2:50   66.5    22    0.1   241      0.9   944.0    0.00       0    76.9
 122    3:00   66.5    21    0.5    21      1.2   943.9    0.00       0    76.7
 122    3:10   66.7    21    0.2    14      1.5   943.9    0.00       0    76.6
 122    3:20   66.1    21    0.0    24      0.3   943.9    0.00       0    76.4
 122    3:30   65.9    22    0.1   201      0.9   943.8    0.00       0    76.3
 122    3:40   65.9    23    0.1   181      1.2   943.9    0.00       0    76.1
 122    3:50   66.3    22    0.2   137      1.3   943.9    0.00       0    76.0
 122    4:00   66.2    23    0.0   165      0.9   943.9    0.00       0    75.8
 122    4:10   65.0    24    0.0     0      0.0   944.0    0.00       0    75.7
 122    4:20   64.1    25    0.0     0      0.0   944.0    0.00       0    75.5
 122    4:30   63.7    26    0.0     0      0.0   944.2    0.00       0    75.4
 122    4:40   63.4    26    0.3   166      1.2   944.2    0.00       1    75.3
 122    4:50   63.7    26    0.4   170      1.5   944.4    0.00       4    75.1
 122    5:00   63.8    25    0.4   174      1.4   944.4    0.00       9    75.0
 122    5:10   63.7    25    0.1   181      0.9   944.5    0.00      20    74.9
 122    5:20   64.3    25    0.3   149      1.3   944.6    0.00      24    74.7
 122    5:30   64.6    26    0.1   172      1.9   944.7    0.00      30    74.6
 122    5:40   65.2    26    0.9   147      2.1   944.8    0.00      32    74.5
 122    5:50   66.1    26    0.1   188      1.2   944.9    0.00      35    74.4
 122    6:00   66.5    25    0.4   159      1.0   945.1    0.00      40    74.3
 122    6:10   67.5    24    0.3   156      1.5   945.1    0.00      46    74.2
 122    6:20   67.7    21    0.1   166      1.0   945.2    0.00      51    74.1
 122    6:30   67.8    21    0.0   223      0.7   945.2    0.00      51    74.0
 122    6:40   68.5    19    1.4   173      2.3   945.3    0.00      46    74.0
 122    6:50   69.1    18    1.8   165      2.9   945.3    0.00      43    74.0
 122    7:00   69.5    18    1.5   184      3.3   945.4    0.00      42    73.9
 122    7:10   70.1    17    1.6   174      4.4   945.4    0.00      45    73.9
 122    7:20   70.8    16    1.7   184      4.2   945.5    0.00      50    73.8
 122    7:30   71.6    16    1.3    58      4.5   945.6    0.00      51    73.8
 122    7:40   72.3    15    2.2    56      4.5   945.6    0.00      50    73.8
 122    7:50   72.8    15    1.6    60      5.0   945.6    0.00      66    73.8
 122    8:00   73.3    15    2.6    23      7.6   945.6    0.00      65    73.7
 122    8:10   73.9    15    1.6    19      5.8   945.6    0.00      82    73.7
 122    8:20   75.0    14    2.6    39      5.8   945.6    0.00      89    73.7
 122    8:30   75.7    14    2.8    58      5.8   945.5    0.00      89    73.8
 122    8:40   76.2    14    3.2    54      6.6   945.6    0.00     255    73.8
 122    8:50   76.7    14    2.6    52      6.3   945.5    0.00     382    73.8
 122    9:00   77.3    13    2.4    55      5.6   945.5    0.00     561    73.9
 122    9:10   77.6    13    3.0    38      6.4   945.5    0.00     734    73.9
 122    9:20   78.0    13    2.4    43      6.4   945.3    0.00     730    74.0
 122    9:30   78.8    13    1.1    41      4.4   945.4    0.00     755    74.2
 122    9:40   80.1    13    1.9    18      4.5   945.3    0.00     824    74.5
 122    9:50   80.5    13    1.5    48      5.1   945.1    0.00     732    74.8

Return to Las Vegas, Nevada graphs page.


Western Regional Climate Center,wrcc@dri.edu